Terminal Aerodrome Forecast
Issued by NWS Sterling, VA

Current Version | Previous Version | Text Only | Print | Product List | Glossary Off
Versions: 1 2 3 4 5 6 7 8 9 10 11 12 13 14 15 16 17 18 19 20 21 22 23

000
FTUS41 KLWX 250531
TAFDCA
TAF
KDCA 250531Z 2506/2606 00000KT P6SM FEW040
     FM251000 00000KT P6SM BKN040
     FM251400 14006KT P6SM OVC040
     FM251800 16009G17KT P6SM SCT025 OVC035
     FM252200 00000KT P6SM BKN020=

USA.gov is the U.S. government's official web portal to all federal, state and local government web resources and services.